Time;durP1;ratioP1;P1;durP2;ratioP2;P2;SDS_P1;SDS_P2;PMS_P1;PMS_P2;Temp;Humidity;BMP_temperature;BMP_pressure;BME280_temperature;BME280_humidity;BME280_pressure;Samples;Min_cycle;Max_cycle;Signal;HPM_P1;HPM_P2
2023/10/18 09:43:37;;;;;;;10.38;4.85;;;;;;;12.71;58.71;99075.16;6281633;22;20086;-90
2023/10/18 09:46:03;;;;;;;13.35;5.38;;;;;;;12.82;59.06;99085.94;6307786;22;20019;-89
2023/10/18 09:48:32;;;;;;;11.63;5.13;;;;;;;12.90;59.01;99079.00;6307346;22;20082;-90
2023/10/18 09:51:08;;;;;;;10.82;4.72;;;;;;;12.94;58.76;99072.63;6304856;22;20007;-90
2023/10/18 09:53:44;;;;;;;7.93;4.50;;;;;;;13.13;58.17;99071.81;6302655;22;20018;-90
2023/10/18 09:56:14;;;;;;;8.77;4.22;;;;;;;13.22;57.84;99060.97;6301950;22;20094;-90
2023/10/18 09:58:43;;;;;;;7.72;3.63;;;;;;;13.19;57.77;99061.59;6275014;22;20433;-90
2023/10/18 10:04:01;;;;;;;7.10;2.95;;;;;;;13.54;56.22;99055.81;6272358;22;20068;-90
2023/10/18 10:06:27;;;;;;;6.00;3.50;;;;;;;13.61;54.95;99055.41;6274862;22;20014;-90
2023/10/18 10:11:36;;;;;;;10.52;3.67;;;;;;;13.64;53.51;99054.81;6312573;22;20017;-90
2023/10/18 10:14:07;;;;;;;6.47;2.35;;;;;;;13.70;53.54;99061.81;6273763;22;20444;-91
2023/10/18 10:16:33;;;;;;;7.57;2.72;;;;;;;13.84;53.39;99061.00;6301468;22;20007;-90
2023/10/18 10:19:04;;;;;;;8.82;3.47;;;;;;;13.84;53.83;99050.84;6301625;22;20011;-90
2023/10/18 10:21:33;;;;;;;8.85;3.20;;;;;;;13.87;53.52;99052.97;6301467;22;20014;-90
2023/10/18 10:24:00;;;;;;;10.00;3.28;;;;;;;14.00;53.10;99050.53;6301752;22;20007;-91
2023/10/18 10:26:29;;;;;;;13.07;3.40;;;;;;;14.02;52.99;99053.78;6302019;22;20006;-90
2023/10/18 10:31:50;;;;;;;8.25;2.70;;;;;;;14.10;52.42;99039.38;6311940;22;20010;-90
2023/10/18 10:34:26;;;;;;;6.82;3.10;;;;;;;14.24;52.77;99033.06;6301700;22;20057;-89
2023/10/18 10:37:12;;;;;;;6.60;3.25;;;;;;;14.29;52.25;99027.47;6300263;22;20061;-89
2023/10/18 10:39:44;;;;;;;10.32;2.53;;;;;;;14.26;52.78;99024.53;6280141;22;20082;-89
2023/10/18 10:42:28;;;;;;;5.78;2.65;;;;;;;14.43;52.84;99012.91;6301242;22;20087;-89
2023/10/18 10:45:06;;;;;;;5.82;2.28;;;;;;;14.42;53.00;99005.81;6301610;22;20019;-88
2023/10/18 10:47:32;;;;;;;7.00;2.65;;;;;;;14.64;53.18;99002.28;6301832;22;20008;-89
2023/10/18 10:50:01;;;;;;;380.13;66.70;;;;;;;14.72;52.50;99003.47;6301299;22;20000;-90
2023/10/18 10:52:29;;;;;;;170.05;26.73;;;;;;;14.70;52.46;98995.56;6301727;22;20017;-90
2023/10/18 10:55:02;;;;;;;7.30;2.67;;;;;;;14.90;51.21;98987.16;6301422;22;20007;-89
2023/10/18 10:57:35;;;;;;;21.60;4.45;;;;;;;14.96;51.34;98996.06;6301061;22;20082;-89
2023/10/18 11:00:22;;;;;;;8.40;2.72;;;;;;;15.03;51.05;98989.00;6301019;22;20035;-89
2023/10/18 11:03:06;;;;;;;5.07;1.90;;;;;;;15.17;51.00;98979.88;6301089;22;20007;-89
2023/10/18 11:05:38;;;;;;;4.90;1.95;;;;;;;15.21;51.33;98972.66;6301030;22;20003;-89
2023/10/18 11:08:05;;;;;;;4.22;1.48;;;;;;;15.36;49.86;98970.59;6299608;22;20023;-89
2023/10/18 11:10:35;;;;;;;6.38;2.70;;;;;;;15.31;50.78;98963.31;6301768;22;20078;-90
2023/10/18 11:13:00;;;;;;;3.95;1.98;;;;;;;15.43;49.34;98956.41;6301399;22;20030;-89
2023/10/18 11:15:27;;;;;;;5.63;1.75;;;;;;;15.27;48.63;98954.91;6300760;22;20007;-89
2023/10/18 11:18:09;;;;;;;2.30;1.20;;;;;;;15.65;48.63;98939.03;6301417;22;20003;-90
2023/10/18 11:20:48;;;;;;;21.77;3.25;;;;;;;15.83;47.54;98944.56;6273701;22;20082;-89
2023/10/18 11:23:14;;;;;;;3.92;1.73;;;;;;;15.99;46.91;98926.47;6301289;22;20013;-89
2023/10/18 11:25:41;;;;;;;7.43;2.78;;;;;;;16.03;47.30;98915.66;6301104;22;20333;-89
2023/10/18 11:28:20;;;;;;;5.97;2.13;;;;;;;15.97;46.38;98904.00;6301133;22;20003;-89
2023/10/18 11:30:46;;;;;;;3.60;1.85;;;;;;;16.00;46.01;98899.81;6301113;22;20308;-89
2023/10/18 11:33:17;;;;;;;3.25;1.80;;;;;;;16.03;45.36;98887.41;6300780;22;20014;-89
2023/10/18 11:35:48;;;;;;;7.72;2.30;;;;;;;15.91;44.77;98879.72;6301412;22;20003;-90
2023/10/18 11:38:19;;;;;;;4.72;1.58;;;;;;;15.90;43.65;98876.19;6302463;22;20014;-89
2023/10/18 11:40:51;;;;;;;6.28;1.98;;;;;;;15.91;42.38;98883.28;6300883;22;20011;-88
2023/10/18 11:43:25;;;;;;;3.63;1.77;;;;;;;15.82;43.36;98868.75;6300555;22;20011;-94
2023/10/18 11:46:05;;;;;;;5.57;1.95;;;;;;;15.93;43.42;98856.31;6301081;22;20240;-93
2023/10/18 11:48:34;;;;;;;5.03;1.98;;;;;;;16.02;43.70;98853.59;6300377;22;20014;-93
2023/10/18 11:51:02;;;;;;;7.75;1.85;;;;;;;15.97;43.25;98846.28;6301009;22;20007;-92
2023/10/18 11:53:28;;;;;;;6.35;2.00;;;;;;;15.96;44.17;98849.34;6300687;22;20007;-93
2023/10/18 11:55:58;;;;;;;5.88;1.52;;;;;;;16.10;43.28;98854.72;6272724;22;20526;-93
2023/10/18 11:58:28;;;;;;;6.35;1.65;;;;;;;16.10;43.04;98843.72;6300897;22;20011;-92
2023/10/18 12:00:59;;;;;;;8.93;2.15;;;;;;;16.28;43.58;98832.69;6300660;22;20507;-93
2023/10/18 12:03:27;;;;;;;5.20;1.80;;;;;;;16.18;44.56;98831.91;6299596;22;20007;-92
2023/10/18 12:05:55;;;;;;;5.43;2.65;;;;;;;16.20;44.20;98829.63;6300533;22;20030;-92
2023/10/18 12:08:23;;;;;;;3.45;1.45;;;;;;;16.14;43.76;98830.94;6300473;22;20007;-93
2023/10/18 12:10:54;;;;;;;5.38;1.40;;;;;;;16.13;44.35;98826.56;6300164;22;20082;-93
2023/10/18 12:13:20;;;;;;;2.72;1.42;;;;;;;16.05;44.50;98819.16;6300728;22;20299;-93
2023/10/18 12:15:47;;;;;;;8.32;2.53;;;;;;;16.18;44.52;98818.16;6300531;22;20082;-93
2023/10/18 12:18:14;;;;;;;4.28;1.30;;;;;;;16.20;43.70;98815.91;6304400;22;20003;-93
2023/10/18 12:20:43;;;;;;;5.25;2.70;;;;;;;15.99;44.08;98811.03;6306228;22;20188;-93
2023/10/18 12:23:21;;;;;;;3.97;1.80;;;;;;;15.89;44.80;98797.63;6302301;22;20003;-92
2023/10/18 12:25:48;;;;;;;7.43;2.58;;;;;;;15.80;45.19;98791.31;6301249;22;19999;-92
2023/10/18 12:28:19;;;;;;;6.05;2.53;;;;;;;15.96;45.28;98788.88;6301199;22;20053;-92
2023/10/18 12:30:51;;;;;;;4.38;1.70;;;;;;;15.93;45.49;98784.03;6300123;22;20056;-93
2023/10/18 12:33:26;;;;;;;2.58;1.27;;;;;;;15.93;45.67;98784.03;6299849;22;20447;-92
2023/10/18 12:35:52;;;;;;;3.63;1.67;;;;;;;15.94;44.81;98780.97;6300818;22;20464;-93
2023/10/18 12:38:31;;;;;;;4.22;1.83;;;;;;;15.86;44.64;98779.03;6273529;22;20362;-92
2023/10/18 12:41:00;;;;;;;4.00;1.52;;;;;;;15.88;45.30;98777.56;6300989;22;20372;-92
2023/10/18 12:43:26;;;;;;;6.20;2.10;;;;;;;15.92;45.36;98780.50;6300497;22;20293;-92
2023/10/18 12:45:52;;;;;;;3.42;1.52;;;;;;;16.02;45.20;98765.63;6300775;22;20015;-92
2023/10/18 12:48:24;;;;;;;4.28;1.38;;;;;;;15.98;44.86;98762.69;6272911;22;20015;-92
2023/10/18 12:50:53;;;;;;;3.15;1.50;;;;;;;15.92;45.28;98743.94;6301266;22;20090;-92
2023/10/18 14:34:39;;;;;;;4.03;1.63;;;;;;;16.26;45.55;98494.81;6295472;22;20076;-92
2023/10/18 14:37:05;;;;;;;5.68;1.77;;;;;;;16.22;46.01;98491.94;6304195;22;20074;-93
2023/10/18 14:39:30;;;;;;;2.83;1.50;;;;;;;16.22;45.69;98493.88;6279739;22;20031;-92
2023/10/18 14:41:55;;;;;;;8.18;3.15;;;;;;;16.27;45.47;98490.13;6304771;22;20213;-91
2023/10/18 14:44:20;;;;;;;4.40;1.80;;;;;;;16.30;45.44;98483.94;6274501;22;20174;-92
2023/10/18 14:46:46;;;;;;;4.38;1.75;;;;;;;16.25;45.33;98484.94;6302178;22;20009;-92
2023/10/18 14:49:13;;;;;;;4.97;2.60;;;;;;;16.23;45.27;98479.00;6301459;22;20014;-92
2023/10/18 14:51:43;;;;;;;4.15;1.77;;;;;;;16.25;45.46;98481.41;6274427;22;20011;-92
2023/10/18 14:54:09;;;;;;;4.93;2.20;;;;;;;16.20;45.12;98477.72;6301435;22;19999;-92
2023/10/18 14:56:34;;;;;;;8.50;2.00;;;;;;;16.13;45.58;98469.16;6302048;22;20357;-92
2023/10/18 14:58:59;;;;;;;7.03;2.30;;;;;;;16.09;45.62;98462.72;6301361;22;20491;-93
2023/10/18 15:01:25;;;;;;;11.68;1.85;;;;;;;16.03;45.40;98458.59;6301888;22;20256;-92
2023/10/18 15:03:50;;;;;;;5.38;2.00;;;;;;;15.97;45.59;98458.75;6301510;22;20011;-91
2023/10/18 15:06:19;;;;;;;2.90;1.30;;;;;;;16.01;45.46;98463.59;6274510;22;19999;-92
2023/10/18 15:08:46;;;;;;;4.30;1.92;;;;;;;15.91;46.08;98462.81;6301379;22;20011;-93
2023/10/18 15:11:14;;;;;;;4.97;1.92;;;;;;;16.02;46.05;98446.78;6301709;22;20006;-92
2023/10/18 15:13:43;;;;;;;5.05;2.13;;;;;;;15.91;46.75;98451.81;6301863;22;20058;-88
2023/10/18 15:16:10;;;;;;;4.45;1.83;;;;;;;15.92;45.92;98442.47;6300778;22;20007;-88
2023/10/18 15:18:35;;;;;;;18.70;10.82;;;;;;;15.97;45.87;98433.19;6300680;22;20529;-87
2023/10/18 15:21:03;;;;;;;9.57;5.70;;;;;;;15.81;47.23;98428.28;6300871;22;20038;-88
2023/10/18 15:23:29;;;;;;;6.78;3.03;;;;;;;15.65;46.83;98433.56;6300837;22;20013;-88
2023/10/18 15:25:59;;;;;;;6.43;2.72;;;;;;;15.72;46.81;98433.81;6300967;22;20097;-88
2023/10/18 15:28:26;;;;;;;10.02;3.25;;;;;;;15.61;47.37;98421.63;6301251;22;20011;-87
2023/10/18 15:30:52;;;;;;;6.28;2.10;;;;;;;15.63;47.33;98424.84;6273224;22;20348;-87
2023/10/18 15:33:19;;;;;;;9.48;3.08;;;;;;;15.64;47.58;98424.50;6300535;22;20113;-87
2023/10/18 15:35:45;;;;;;;7.40;2.40;;;;;;;15.62;46.84;98415.00;6300670;22;20100;-87
2023/10/18 15:38:10;;;;;;;6.00;2.10;;;;;;;15.47;46.38;98408.94;6273334;22;20007;-87
2023/10/18 15:40:38;;;;;;;8.07;2.13;;;;;;;15.61;46.93;98405.94;6300877;22;20255;-87
2023/10/18 15:43:04;;;;;;;8.00;1.88;;;;;;;15.58;46.72;98400.31;6300260;22;20421;-87
2023/10/18 15:45:30;;;;;;;7.10;2.28;;;;;;;15.60;47.19;98393.34;6300770;22;20068;-87
2023/10/18 15:47:55;;;;;;;8.50;2.35;;;;;;;15.61;46.65;98383.16;6273518;22;20103;-87
2023/10/18 15:50:20;;;;;;;3.92;1.90;;;;;;;15.54;46.84;98380.94;6300190;22;20038;-87
2023/10/18 15:52:46;;;;;;;4.32;2.70;;;;;;;15.52;46.79;98384.00;6300880;22;20014;-87
2023/10/18 15:55:14;;;;;;;8.63;3.13;;;;;;;15.45;47.54;98380.19;6300362;22;19999;-87
2023/10/18 15:57:41;;;;;;;6.10;2.72;;;;;;;15.34;47.51;98380.56;6300608;22;20007;-87
2023/10/18 16:00:08;;;;;;;8.20;2.63;;;;;;;15.38;47.65;98386.19;6300604;22;20015;-88
2023/10/18 16:02:34;;;;;;;5.50;2.30;;;;;;;15.37;47.94;98373.59;6299866;22;19999;-87
2023/10/18 16:04:59;;;;;;;4.63;2.20;;;;;;;15.54;47.80;98369.94;6300178;22;20014;-86
2023/10/18 16:07:25;;;;;;;5.68;1.75;;;;;;;15.46;47.91;98379.84;6301789;22;20085;-87
2023/10/18 16:09:50;;;;;;;5.57;2.63;;;;;;;15.48;48.14;98380.31;6303234;22;20034;-88
2023/10/18 16:12:15;;;;;;;10.98;4.65;;;;;;;15.49;48.17;98381.94;6300585;22;20060;-87
2023/10/18 16:14:41;;;;;;;20.60;10.48;;;;;;;15.52;48.26;98374.97;6301991;22;20004;-88
2023/10/18 16:17:07;;;;;;;69.95;44.38;;;;;;;15.48;47.86;98371.28;6301917;22;20019;-86
2023/10/18 16:19:32;;;;;;;49.33;33.17;;;;;;;15.43;48.14;98361.31;6300144;22;20009;-86
2023/10/18 16:21:59;;;;;;;24.40;14.75;;;;;;;15.45;47.96;98363.72;6273122;22;20006;-87
2023/10/18 16:24:25;;;;;;;19.85;8.02;;;;;;;15.42;47.85;98359.69;6300785;22;20603;-90
2023/10/18 16:26:51;;;;;;;14.52;6.70;;;;;;;15.41;48.99;98358.09;6299760;22;19999;-90
2023/10/18 16:29:18;;;;;;;7.32;3.83;;;;;;;15.24;49.03;98357.03;6300650;22;20003;-91
2023/10/18 16:31:45;;;;;;;10.70;3.40;;;;;;;15.31;49.41;98350.22;6300977;22;20010;-90
2023/10/18 16:34:11;;;;;;;14.50;7.40;;;;;;;15.31;48.90;98341.97;6300203;22;20607;-91
2023/10/18 16:36:37;;;;;;;40.67;19.23;;;;;;;15.39;48.60;98343.88;6273249;22;20061;-91
2023/10/18 16:39:04;;;;;;;43.40;22.00;;;;;;;15.52;48.24;98342.81;6300313;22;20003;-91
2023/10/18 16:41:30;;;;;;;41.63;20.30;;;;;;;15.54;48.46;98344.44;6300310;22;20007;-91
2023/10/18 16:43:56;;;;;;;20.05;11.60;;;;;;;15.54;48.22;98350.72;6274620;22;20060;-91
2023/10/18 16:46:22;;;;;;;21.40;13.05;;;;;;;15.50;48.50;98350.59;6300157;22;20011;-90
2023/10/18 16:48:49;;;;;;;54.33;24.75;;;;;;;15.49;48.81;98338.00;6301143;22;20026;-91
2023/10/18 16:51:15;;;;;;;46.63;30.50;;;;;;;15.44;49.23;98338.19;6302203;22;20445;-91
2023/10/18 16:53:45;;;;;;;16.38;9.20;;;;;;;15.50;49.03;98344.28;6302967;22;20007;-91
2023/10/18 16:56:11;;;;;;;12.80;7.53;;;;;;;15.47;50.50;98343.03;6307582;22;20003;-90
2023/10/18 16:58:38;;;;;;;23.17;14.23;;;;;;;15.49;50.39;98339.94;6307531;22;20078;-91
2023/10/18 17:01:09;;;;;;;10.90;6.80;;;;;;;15.16;50.80;98338.66;6276220;22;20019;-90
2023/10/18 17:03:39;;;;;;;10.40;3.58;;;;;;;15.31;51.05;98344.72;6275391;22;20156;-90
2023/10/18 17:06:06;;;;;;;8.27;2.88;;;;;;;15.31;50.84;98331.00;6302670;22;20232;-91
2023/10/18 17:08:32;;;;;;;9.40;2.65;;;;;;;15.10;51.22;98323.50;6302074;22;20095;-90
2023/10/18 17:10:58;;;;;;;7.18;3.17;;;;;;;15.15;52.04;98324.13;6302759;22;20014;-91
2023/10/18 17:13:24;;;;;;;8.35;4.38;;;;;;;15.18;52.66;98317.19;6301722;22;20003;-90
2023/10/18 17:15:51;;;;;;;7.40;4.53;;;;;;;15.12;52.24;98315.75;6274085;22;20033;-90
2023/10/18 17:18:16;;;;;;;8.05;3.95;;;;;;;15.20;51.69;98308.59;6302167;22;20332;-90
2023/10/18 17:20:45;;;;;;;8.20;3.05;;;;;;;15.02;51.77;98309.53;6302301;22;20122;-90
2023/10/18 17:23:10;;;;;;;10.15;4.07;;;;;;;15.05;52.09;98306.09;6302059;22;20006;-91
2023/10/18 17:25:36;;;;;;;5.55;2.88;;;;;;;15.07;50.83;98304.97;6302926;22;20417;-91
2023/10/18 17:28:03;;;;;;;7.65;3.58;;;;;;;15.15;50.49;98307.66;6301979;22;20000;-91
2023/10/18 17:30:28;;;;;;;14.23;8.30;;;;;;;15.24;50.94;98312.31;6275091;22;20007;-91
2023/10/18 19:12:21;;;;;;;7.90;2.90;;;;;;;15.17;52.02;98159.13;6277432;22;20019;31
2023/10/18 19:14:50;;;;;;;7.50;3.17;;;;;;;15.18;51.79;98157.97;6273743;22;20027;-95
2023/10/18 19:17:16;;;;;;;7.63;2.88;;;;;;;15.08;52.45;98152.88;6249227;22;20072;-94
2023/10/18 19:19:41;;;;;;;9.00;3.78;;;;;;;15.12;52.04;98154.63;6273871;22;20031;-94
2023/10/18 19:22:07;;;;;;;6.30;2.63;;;;;;;15.14;52.19;98146.06;6271107;22;20010;-95
2023/10/18 19:24:32;;;;;;;6.35;3.28;;;;;;;15.16;51.57;98143.78;6269783;22;20026;-94
2023/10/18 19:27:01;;;;;;;6.30;2.88;;;;;;;15.20;52.12;98135.69;6270595;22;20007;-95
2023/10/18 19:29:26;;;;;;;8.73;3.75;;;;;;;15.01;52.48;98126.78;6270947;22;20017;-94
2023/10/18 19:31:52;;;;;;;5.57;2.30;;;;;;;15.07;52.28;98129.34;6269953;22;20003;-95
2023/10/18 19:34:17;;;;;;;5.50;3.15;;;;;;;14.98;52.26;98119.22;6270267;22;20008;-95
2023/10/18 19:36:42;;;;;;;7.68;3.20;;;;;;;15.07;51.95;98119.19;6270881;22;20337;-93
2023/10/18 19:39:08;;;;;;;7.55;3.53;;;;;;;15.07;52.63;98105.44;6243019;22;20345;-94
2023/10/18 19:41:34;;;;;;;8.35;3.28;;;;;;;15.01;52.72;98098.56;6270542;22;20007;-94
2023/10/18 19:44:00;;;;;;;6.68;3.40;;;;;;;14.91;52.60;98099.75;6269812;22;20010;-94
2023/10/18 19:46:25;;;;;;;10.40;2.83;;;;;;;14.88;53.27;98090.25;6269885;22;20422;-95
2023/10/18 19:48:51;;;;;;;6.80;3.00;;;;;;;14.84;54.39;98103.03;6270743;22;20030;-94
2023/10/18 19:51:16;;;;;;;5.10;2.58;;;;;;;14.72;54.68;98095.50;6242886;22;20090;-94
2023/10/18 21:39:12;;;;;;;1809.63;820.88;;;;;;;13.31;73.76;97941.66;6286467;22;20035;-88
2023/10/18 21:41:37;;;;;;;1999.90;999.90;;;;;;;13.18;74.60;97941.53;6338393;22;20015;-88
2023/10/18 21:44:03;;;;;;;1999.90;999.90;;;;;;;12.90;75.49;97944.69;6334508;22;20014;-88
2023/10/18 21:46:30;;;;;;;1999.90;705.78;;;;;;;13.14;75.30;97937.84;6331653;22;20407;-88
2023/10/18 21:48:56;;;;;;;1999.90;999.90;;;;;;;13.19;75.26;97934.97;6333214;22;20369;-88
2023/10/18 21:51:23;;;;;;;1999.90;999.90;;;;;;;13.28;74.87;97932.19;6331242;22;20003;-88
2023/10/18 21:53:48;;;;;;;1999.90;999.90;;;;;;;13.09;74.92;97924.38;6332411;22;20019;-88
2023/10/18 21:56:14;;;;;;;1999.90;999.90;;;;;;;13.18;75.32;97930.59;6332798;22;20017;-88
2023/10/18 21:58:39;;;;;;;1999.90;999.90;;;;;;;13.17;75.80;97915.34;6331319;22;20239;-88
2023/10/18 22:01:09;;;;;;;1999.90;999.90;;;;;;;13.14;75.89;97899.56;6332214;22;20018;-88
2023/10/18 22:03:35;;;;;;;1733.20;999.90;;;;;;;12.96;76.70;97899.63;6332873;22;20033;-88
2023/10/18 22:06:07;;;;;;;1076.93;824.13;;;;;;;13.02;76.52;97899.44;6332737;22;20428;-88
2023/10/18 22:08:38;;;;;;;756.10;684.72;;;;;;;12.98;77.33;97893.03;6332105;22;20007;-88
2023/10/18 22:11:05;;;;;;;467.08;436.60;;;;;;;12.88;77.11;97886.78;6330708;22;20007;-88
2023/10/18 22:13:33;;;;;;;442.00;407.65;;;;;;;12.95;77.31;97889.00;6333540;22;20022;-93
2023/10/18 22:16:00;;;;;;;178.88;167.80;;;;;;;13.07;77.04;97902.81;6333150;22;19998;-92
2023/10/18 22:18:37;;;;;;;122.20;114.10;;;;;;;13.03;77.26;97903.78;6332905;22;20030;-91
2023/10/18 22:21:03;;;;;;;22.05;20.15;;;;;;;13.16;77.23;97908.25;6333113;22;20007;-93
2023/10/18 22:23:35;;;;;;;74.20;66.53;;;;;;;13.19;76.73;97890.38;6332850;22;20011;-92
2023/10/18 22:26:12;;;;;;;8.77;5.75;;;;;;;13.30;77.11;97888.88;6333069;22;20010;-92
2023/10/18 22:28:38;;;;;;;122.18;110.18;;;;;;;13.24;77.31;97870.25;6332451;22;20021;-93
2023/10/18 22:31:06;;;;;;;12.18;7.82;;;;;;;13.23;77.74;97876.84;6332919;22;20010;-92
2023/10/18 22:33:32;;;;;;;18.92;7.20;;;;;;;13.26;77.69;97878.94;6332504;22;20306;-92
2023/10/18 22:35:58;;;;;;;10.48;5.88;;;;;;;13.31;78.23;97878.72;6332208;22;20007;-92
2023/10/18 22:38:25;;;;;;;10.23;5.78;;;;;;;13.31;78.80;97886.94;6333399;22;20006;-93
2023/10/18 22:40:53;;;;;;;10.50;5.57;;;;;;;13.33;78.97;97886.59;6332469;22;20069;-92
2023/10/18 22:43:25;;;;;;;11.77;4.85;;;;;;;13.47;78.23;97878.16;6331180;22;20018;-91
2023/10/18 22:46:05;;;;;;;8.68;4.93;;;;;;;13.37;78.75;97880.16;6332505;22;20090;-92
2023/10/18 22:48:35;;;;;;;10.52;6.40;;;;;;;13.34;79.45;97869.88;6333049;22;20030;-92
2023/10/18 22:53:53;;;;;;;15.65;14.05;;;;;;;13.05;81.40;97855.03;6343490;22;20064;-92
2023/10/18 22:59:09;;;;;;;223.80;204.35;;;;;;;12.90;82.80;97840.75;6331803;22;20029;-92
2023/10/18 23:01:37;;;;;;;19.45;17.77;;;;;;;12.89;83.42;97850.09;6331253;22;20018;-92
2023/10/18 23:04:04;;;;;;;12.70;9.23;;;;;;;12.89;83.64;97846.56;6331442;22;20026;-91
2023/10/18 23:06:37;;;;;;;9.48;5.30;;;;;;;13.07;83.39;97839.09;6330782;22;20010;-92
2023/10/18 23:09:06;;;;;;;10.68;7.40;;;;;;;13.21;82.50;97832.59;6332324;22;20040;-92
2023/10/18 23:11:43;;;;;;;9.25;5.75;;;;;;;13.07;83.23;97823.50;6332456;22;20302;-92
2023/10/18 23:14:23;;;;;;;11.95;10.85;;;;;;;13.02;83.61;97822.84;6332451;22;20522;-92
2023/10/18 23:21:56;;;;;;;117.32;107.35;;;;;;;13.06;83.34;97810.13;6332412;22;20059;-92
2023/10/18 23:29:40;;;;;;;52.45;44.33;;;;;;;12.84;85.18;97814.72;6332242;22;20013;-94
2023/10/18 23:32:18;;;;;;;74.00;52.53;;;;;;;13.02;84.80;97820.09;6332655;22;20011;-94
2023/10/18 23:34:50;;;;;;;11.27;6.25;;;;;;;13.17;84.26;97822.31;6332592;22;20182;-94
2023/10/18 23:37:27;;;;;;;17.00;6.15;;;;;;;13.31;83.81;97810.31;6332310;22;20006;-93
2023/10/18 23:39:54;;;;;;;9.85;4.80;;;;;;;13.50;82.81;97811.81;6332791;22;20097;-94
2023/10/18 23:42:25;;;;;;;13.45;11.75;;;;;;;13.47;82.55;97796.84;6331477;22;20560;-93
2023/10/18 23:47:49;;;;;;;8.93;6.18;;;;;;;13.46;83.37;97778.03;6332823;22;20036;-94
2023/10/18 23:50:25;;;;;;;10.18;6.20;;;;;;;13.41;83.30;97793.50;6332668;22;20079;-94
2023/10/18 23:52:55;;;;;;;9.70;6.55;;;;;;;13.60;82.93;97778.59;6331121;22;20160;-94
2023/10/18 23:55:37;;;;;;;55.88;48.53;;;;;;;13.57;82.73;97784.72;6332751;22;20090;-94
2023/10/18 23:58:07;;;;;;;57.08;20.92;;;;;;;13.51;83.20;97780.56;6331897;22;20391;-94
